createdAt,value
2022-08-07T00:00:39.931Z,58.38
2022-08-07T00:03:08.567Z,58.50
2022-08-07T00:05:36.289Z,58.27
2022-08-07T00:08:04.966Z,58.90
2022-08-07T00:10:32.002Z,58.95
2022-08-07T00:13:09.674Z,59.05
2022-08-07T00:15:51.254Z,58.46
2022-08-07T00:18:26.969Z,58.89
2022-08-07T00:21:01.631Z,58.95
2022-08-07T00:23:31.240Z,59.01
2022-08-07T00:26:13.158Z,59.21
2022-08-07T00:28:56.489Z,59.45
2022-08-07T00:31:38.186Z,59.44
2022-08-07T00:34:09.602Z,59.51
2022-08-07T00:36:38.673Z,59.32
2022-08-07T00:39:16.184Z,59.63
2022-08-07T00:42:02.384Z,59.20
2022-08-07T00:44:33.633Z,59.61
2022-08-07T00:47:03.016Z,59.73
2022-08-07T00:50:20.315Z,59.99
2022-08-07T00:52:19.885Z,60.05
2022-08-07T00:54:53.562Z,60.01
2022-08-07T00:57:25.839Z,60.02
2022-08-07T00:59:53.843Z,60.04
2022-08-07T01:02:28.392Z,60.34
2022-08-07T01:04:58.756Z,60.43
2022-08-07T01:07:27.707Z,60.53
2022-08-07T01:10:05.039Z,60.41
2022-08-07T01:12:39.114Z,60.38
2022-08-07T01:15:07.412Z,60.54
2022-08-07T01:17:40.048Z,60.67
2022-08-07T01:20:30.930Z,60.83
2022-08-07T01:23:09.428Z,60.75
2022-08-07T01:25:55.222Z,61.25
2022-08-07T01:28:24.117Z,61.31
2022-08-07T01:30:53.123Z,61.40
2022-08-07T01:33:21.547Z,60.98
2022-08-07T01:35:54.001Z,61.51
2022-08-07T01:38:25.983Z,61.34
2022-08-07T01:41:00.636Z,61.33
2022-08-07T01:43:38.057Z,61.42
2022-08-07T01:46:05.794Z,61.91
2022-08-07T01:48:35.678Z,61.76
2022-08-07T01:52:00.940Z,61.69
2022-08-07T01:54:09.621Z,61.81
2022-08-07T01:56:53.305Z,61.64
2022-08-07T01:59:30.870Z,61.77
2022-08-07T02:02:04.231Z,62.45
2022-08-07T02:04:40.418Z,62.22
2022-08-07T02:07:24.477Z,62.09
2022-08-07T02:10:04.512Z,61.82
2022-08-07T02:12:33.842Z,62.31
2022-08-07T02:15:01.067Z,62.49
2022-08-07T02:17:34.177Z,62.40
2022-08-07T02:20:04.452Z,62.56
2022-08-07T02:22:34.355Z,62.66
2022-08-07T02:25:01.926Z,62.52
2022-08-07T02:27:35.080Z,62.88
2022-08-07T02:30:07.409Z,62.88
2022-08-07T02:32:39.511Z,62.63
2022-08-07T02:36:27.055Z,62.69
2022-08-07T02:38:11.413Z,63.01
2022-08-07T02:40:41.964Z,63.00
2022-08-07T02:43:14.749Z,63.35
2022-08-07T02:45:58.571Z,63.30
2022-08-07T02:48:28.306Z,63.11
2022-08-07T02:50:56.147Z,63.33
2022-08-07T02:53:27.447Z,63.15
2022-08-07T02:56:04.468Z,63.27
2022-08-07T02:58:33.438Z,63.10
2022-08-07T03:01:00.646Z,63.58
2022-08-07T03:03:49.117Z,63.94
2022-08-07T03:06:26.177Z,63.62
2022-08-07T03:09:05.418Z,63.79
2022-08-07T03:11:32.650Z,64.35
2022-08-07T03:14:04.504Z,63.92
2022-08-07T03:16:31.825Z,64.14
2022-08-07T03:18:59.425Z,64.11
2022-08-07T03:21:27.891Z,64.20
2022-08-07T03:24:20.056Z,64.18
2022-08-07T03:26:58.522Z,64.58
2022-08-07T03:29:36.636Z,64.37
2022-08-07T03:32:08.286Z,64.28
2022-08-07T03:34:39.345Z,64.40
2022-08-07T03:37:14.012Z,64.43
2022-08-07T03:39:45.879Z,64.68
2022-08-07T03:42:26.279Z,64.59
2022-08-07T03:44:57.756Z,64.67
2022-08-07T03:47:26.258Z,64.56
2022-08-07T03:49:57.648Z,64.68
2022-08-07T03:52:27.596Z,65.01
2022-08-07T03:55:06.485Z,65.03
2022-08-07T03:58:33.768Z,64.74
2022-08-07T04:00:30.475Z,64.54
2022-08-07T04:03:03.851Z,64.50
2022-08-07T04:05:40.783Z,64.84
2022-08-07T04:08:16.141Z,64.42
2022-08-07T04:10:54.472Z,64.60
2022-08-07T04:14:32.961Z,64.57
2022-08-07T04:16:31.585Z,64.53
2022-08-07T04:19:15.216Z,64.30
2022-08-07T04:21:48.081Z,64.78
2022-08-07T04:24:30.495Z,64.83
2022-08-07T04:27:02.952Z,64.73
2022-08-07T04:29:48.755Z,64.89
2022-08-07T04:32:18.467Z,64.94
2022-08-07T04:35:03.970Z,65.01
2022-08-07T04:38:00.823Z,64.84
2022-08-07T04:40:22.197Z,65.06
2022-08-07T04:42:53.964Z,64.94
2022-08-07T04:45:52.246Z,65.13
2022-08-07T04:48:52.073Z,65.22
2022-08-07T04:51:58.055Z,65.36
2022-08-07T04:54:50.377Z,65.29
2022-08-07T04:58:10.440Z,65.56
2022-08-07T05:00:33.748Z,65.57
2022-08-07T05:04:00.008Z,65.68
2022-08-07T05:06:23.045Z,65.80
2022-08-07T05:09:10.999Z,66.03
2022-08-07T05:11:57.963Z,65.86
2022-08-07T05:14:54.636Z,65.76
2022-08-07T05:17:52.868Z,65.99
2022-08-07T05:20:31.571Z,66.13
2022-08-07T05:23:02.208Z,66.11
2022-08-07T05:26:11.168Z,66.14
2022-08-07T05:28:22.802Z,66.29
2022-08-07T05:30:52.357Z,65.95
2022-08-07T05:33:21.305Z,66.11
2022-08-07T05:35:51.880Z,66.00
2022-08-07T05:39:00.370Z,66.14
2022-08-07T05:41:14.001Z,66.11
2022-08-07T05:44:01.561Z,66.26
2022-08-07T05:46:31.947Z,66.44
2022-08-07T05:48:59.397Z,66.66
2022-08-07T05:51:31.773Z,66.85
2022-08-07T05:54:13.548Z,67.03
2022-08-07T05:56:48.550Z,67.23
2022-08-07T05:59:20.747Z,67.67
2022-08-07T06:01:48.632Z,67.54
2022-08-07T06:04:17.476Z,67.69
2022-08-07T06:06:46.079Z,67.75
2022-08-07T06:09:16.074Z,68.01
2022-08-07T06:11:43.414Z,67.98
2022-08-07T06:14:20.681Z,67.67
2022-08-07T06:16:50.459Z,68.08
2022-08-07T06:19:52.370Z,67.61
2022-08-07T06:22:15.858Z,67.94
2022-08-07T06:24:57.683Z,67.84
2022-08-07T06:27:44.502Z,67.93
2022-08-07T06:30:24.324Z,67.64
2022-08-07T06:33:02.524Z,67.75
2022-08-07T06:35:39.191Z,67.58
2022-08-07T06:38:20.037Z,67.60
2022-08-07T06:40:52.021Z,67.65
2022-08-07T06:43:22.398Z,67.09
2022-08-07T06:45:58.557Z,67.27
2022-08-07T06:48:27.853Z,67.04
2022-08-07T06:50:55.580Z,66.66
2022-08-07T06:55:27.920Z,66.32
2022-08-07T06:56:15.566Z,66.27
2022-08-07T07:00:13.244Z,65.58
2022-08-07T07:01:41.826Z,65.33
2022-08-07T07:04:27.949Z,65.17
2022-08-07T07:07:01.343Z,64.69
2022-08-07T07:09:31.195Z,63.51
2022-08-07T07:12:14.156Z,62.53
2022-08-07T07:15:03.310Z,62.13
2022-08-07T07:17:58.127Z,61.70
2022-08-07T07:20:54.549Z,60.59
2022-08-07T07:24:09.693Z,60.08
2022-08-07T07:26:32.620Z,59.69
2022-08-07T07:29:57.029Z,60.08
2022-08-07T07:31:51.643Z,59.68
2022-08-07T07:34:22.834Z,59.02
2022-08-07T07:37:14.559Z,58.82
2022-08-07T07:39:54.892Z,58.52
2022-08-07T07:42:25.822Z,58.62
2022-08-07T07:45:03.266Z,58.26
2022-08-07T07:47:52.186Z,57.79
2022-08-07T07:50:32.840Z,57.67
2022-08-07T07:53:04.537Z,58.04
2022-08-07T07:55:37.404Z,58.10
2022-08-07T07:58:13.514Z,57.91
2022-08-07T08:00:41.292Z,57.33
2022-08-07T08:03:16.593Z,57.14
2022-08-07T08:05:55.111Z,57.87
2022-08-07T08:08:35.417Z,56.95
2022-08-07T08:11:09.353Z,56.24
2022-08-07T08:13:54.905Z,56.10
2022-08-07T08:16:38.193Z,55.65
2022-08-07T08:19:17.626Z,55.38
2022-08-07T08:22:16.855Z,55.43
2022-08-07T08:25:18.559Z,54.65
2022-08-07T08:27:56.987Z,54.30
2022-08-07T08:30:29.531Z,54.91
2022-08-07T08:32:59.523Z,55.13
2022-08-07T08:35:28.518Z,54.63
2022-08-07T08:38:03.214Z,54.99
2022-08-07T08:40:38.164Z,55.03
2022-08-07T08:43:18.006Z,54.98
2022-08-07T08:45:59.117Z,55.14
2022-08-07T08:48:51.662Z,55.16
2022-08-07T08:52:12.446Z,55.20
2022-08-07T08:54:32.680Z,55.40
2022-08-07T08:57:04.286Z,55.27
2022-08-07T08:59:41.831Z,55.83
2022-08-07T09:02:40.255Z,55.44
2022-08-07T09:05:43.145Z,55.25
2022-08-07T09:08:28.770Z,54.61
2022-08-07T09:11:50.502Z,54.15
2022-08-07T09:14:36.584Z,54.30
2022-08-07T09:18:02.104Z,54.00
2022-08-07T09:20:51.934Z,54.05
2022-08-07T09:24:53.721Z,53.89
2022-08-07T09:26:50.917Z,53.52
2022-08-07T09:30:03.549Z,52.81
2022-08-07T09:32:58.993Z,52.04
2022-08-07T09:36:09.750Z,51.74
2022-08-07T09:39:55.289Z,51.41
2022-08-07T09:42:25.270Z,51.19
2022-08-07T09:47:27.738Z,50.61
2022-08-07T09:49:02.225Z,49.68
2022-08-07T09:52:09.874Z,48.97
2022-08-07T09:54:47.937Z,49.43
2022-08-07T09:57:46.802Z,49.43
2022-08-07T10:00:21.286Z,49.76
2022-08-07T10:04:05.778Z,49.85
2022-08-07T10:06:38.176Z,49.81
2022-08-07T10:09:23.617Z,49.07
2022-08-07T10:12:21.737Z,48.71
2022-08-07T10:15:18.632Z,48.60
2022-08-07T10:18:11.939Z,48.25
2022-08-07T10:21:50.761Z,49.34
2022-08-07T10:24:21.634Z,51.00
2022-08-07T10:27:16.118Z,51.33
2022-08-07T10:30:07.060Z,51.96
2022-08-07T10:33:08.493Z,51.59
2022-08-07T10:35:55.754Z,51.87
2022-08-07T10:39:10.942Z,51.86
2022-08-07T10:41:53.281Z,52.11
2022-08-07T10:44:37.693Z,52.41
2022-08-07T10:47:31.165Z,52.28
2022-08-07T10:50:15.360Z,52.67
2022-08-07T10:52:57.621Z,52.66
2022-08-07T10:55:37.978Z,52.50
2022-08-07T10:58:33.404Z,52.66
2022-08-07T11:01:12.231Z,52.96
2022-08-07T11:03:55.145Z,52.84
2022-08-07T11:06:59.594Z,52.59
2022-08-07T11:10:07.026Z,52.77
2022-08-07T11:12:31.643Z,52.25
2022-08-07T11:15:14.778Z,52.31
2022-08-07T11:17:56.661Z,51.52
2022-08-07T11:20:52.849Z,51.50
2022-08-07T11:23:38.554Z,51.78
2022-08-07T11:26:15.009Z,51.49
2022-08-07T11:28:55.200Z,51.64
2022-08-07T11:31:27.564Z,50.76
2022-08-07T11:34:00.322Z,50.95
2022-08-07T11:36:39.914Z,50.67
2022-08-07T11:39:59.070Z,50.27
2022-08-07T11:42:32.662Z,49.83
2022-08-07T11:45:09.364Z,50.34
2022-08-07T11:47:55.925Z,50.06
2022-08-07T11:51:10.279Z,49.15
2022-08-07T11:54:16.849Z,48.65
2022-08-07T11:57:57.974Z,48.63
2022-08-07T12:00:19.674Z,47.81
2022-08-07T12:03:45.631Z,47.29
2022-08-07T12:06:39.808Z,46.75
2022-08-07T12:09:24.433Z,47.21
2022-08-07T12:12:33.740Z,46.93
2022-08-07T12:15:46.665Z,46.79
2022-08-07T12:18:29.686Z,46.41
2022-08-07T12:21:14.972Z,46.19
2022-08-07T12:24:05.358Z,45.51
2022-08-07T12:26:54.132Z,45.86
2022-08-07T12:29:37.753Z,45.19
2022-08-07T12:32:13.121Z,44.62
2022-08-07T12:34:42.524Z,43.77
2022-08-07T12:37:23.363Z,43.49
2022-08-07T12:39:51.812Z,43.46
2022-08-07T12:42:28.094Z,42.83
2022-08-07T12:44:58.612Z,41.88
2022-08-07T12:47:50.317Z,41.50
2022-08-07T12:50:38.719Z,41.72
2022-08-07T12:53:30.246Z,41.70
2022-08-07T12:56:26.616Z,42.09
2022-08-07T12:58:57.187Z,42.03
2022-08-07T13:01:27.924Z,42.04
2022-08-07T13:04:34.067Z,42.57
2022-08-07T13:08:11.929Z,42.18
2022-08-07T13:10:39.268Z,42.00
2022-08-07T13:13:48.233Z,41.16
2022-08-07T13:16:29.452Z,41.39
2022-08-07T13:19:06.119Z,40.02
2022-08-07T13:22:19.937Z,40.19
2022-08-07T13:24:55.226Z,39.77
2022-08-07T13:28:05.790Z,39.64
2022-08-07T13:30:19.263Z,39.06
2022-08-07T13:34:30.826Z,39.12
2022-08-07T13:36:17.761Z,39.41
2022-08-07T13:38:57.078Z,39.24
2022-08-07T13:41:27.925Z,39.11
2022-08-07T13:43:56.688Z,38.91
2022-08-07T13:46:28.299Z,39.08
2022-08-07T13:49:01.725Z,38.82
2022-08-07T13:52:22.634Z,39.09
2022-08-07T13:54:23.826Z,39.98
2022-08-07T13:56:59.775Z,40.38
2022-08-07T13:59:32.366Z,40.13
2022-08-07T14:02:10.702Z,40.38
2022-08-07T14:04:54.654Z,40.09
2022-08-07T14:07:31.841Z,39.07
2022-08-07T14:10:17.659Z,39.33
2022-08-07T14:13:02.967Z,39.12
2022-08-07T14:15:43.243Z,39.29
2022-08-07T14:18:28.314Z,39.18
2022-08-07T14:22:04.248Z,39.04
2022-08-07T14:24:22.921Z,39.64
2022-08-07T14:26:51.574Z,40.53
2022-08-07T14:30:06.276Z,40.89
2022-08-07T14:32:16.419Z,40.64
2022-08-07T14:34:47.339Z,41.14
2022-08-07T14:37:17.083Z,40.84
2022-08-07T14:40:16.565Z,40.69
2022-08-07T14:42:33.845Z,40.04
2022-08-07T14:45:21.519Z,40.53
2022-08-07T14:47:58.492Z,41.14
2022-08-07T14:50:26.674Z,40.85
2022-08-07T14:52:53.675Z,41.38
2022-08-07T14:55:21.583Z,41.58
2022-08-07T14:57:58.860Z,41.04
2022-08-07T15:00:31.234Z,41.42
2022-08-07T15:05:55.234Z,41.70
2022-08-07T15:08:50.182Z,41.96
2022-08-07T15:11:52.820Z,41.36
2022-08-07T15:14:22.930Z,41.15
2022-08-07T15:17:11.474Z,41.24
2022-08-07T15:20:31.118Z,42.10
2022-08-07T15:22:53.727Z,41.36
2022-08-07T15:25:36.749Z,41.65
2022-08-07T15:28:32.169Z,41.47
2022-08-07T15:31:04.977Z,41.56
2022-08-07T15:33:36.036Z,41.15
2022-08-07T15:36:05.695Z,41.12
2022-08-07T15:38:59.277Z,41.38
2022-08-07T15:44:17.246Z,41.40
2022-08-07T15:46:51.819Z,41.46
2022-08-07T15:49:25.594Z,42.03
2022-08-07T15:52:13.494Z,42.07
2022-08-07T15:54:43.232Z,41.80
2022-08-07T15:57:28.369Z,42.11
2022-08-07T16:00:04.493Z,42.36
2022-08-07T16:02:39.059Z,41.75
2022-08-07T16:05:18.506Z,41.70
2022-08-07T16:08:31.705Z,42.16
2022-08-07T16:10:58.340Z,42.47
2022-08-07T16:13:59.944Z,42.14
2022-08-07T16:16:48.006Z,42.18
2022-08-07T16:19:43.128Z,42.44
2022-08-07T16:22:38.105Z,42.52
2022-08-07T16:25:52.632Z,42.41
2022-08-07T16:30:06.346Z,42.46
2022-08-07T16:31:57.284Z,41.96
2022-08-07T16:34:45.473Z,42.47
2022-08-07T16:38:03.892Z,42.37
2022-08-07T16:40:57.031Z,42.67
2022-08-07T16:44:02.378Z,42.60
2022-08-07T16:47:13.038Z,42.71
2022-08-07T16:50:20.439Z,42.60
2022-08-07T16:52:57.528Z,43.18
2022-08-07T16:55:46.982Z,43.08
2022-08-07T16:58:17.339Z,43.00
2022-08-07T17:00:55.247Z,43.74
2022-08-07T17:03:59.462Z,43.78
2022-08-07T17:07:02.973Z,43.84
2022-08-07T17:10:06.940Z,43.91
2022-08-07T17:13:04.103Z,43.92
2022-08-07T17:15:50.767Z,44.00
2022-08-07T17:18:55.889Z,44.81
2022-08-07T17:21:29.372Z,45.00
2022-08-07T17:24:32.859Z,44.79
2022-08-07T17:27:08.589Z,44.82
2022-08-07T17:30:15.476Z,45.21
2022-08-07T17:32:54.856Z,45.42
2022-08-07T17:35:50.481Z,45.95
2022-08-07T17:38:32.090Z,46.19
2022-08-07T17:42:03.009Z,45.91
2022-08-07T17:44:05.838Z,46.10
2022-08-07T17:46:42.334Z,46.86
2022-08-07T17:49:44.875Z,46.88
2022-08-07T17:52:30.621Z,47.06
2022-08-07T17:55:15.981Z,47.22
2022-08-07T17:58:30.458Z,47.00
2022-08-07T18:00:58.258Z,47.47
2022-08-07T18:04:04.413Z,47.20
2022-08-07T18:06:38.646Z,47.80
2022-08-07T18:09:06.528Z,47.79
2022-08-07T18:12:20.000Z,47.86
2022-08-07T18:15:09.089Z,47.93
2022-08-07T18:18:46.071Z,47.98
2022-08-07T18:21:09.846Z,48.33
2022-08-07T18:23:43.092Z,48.16
2022-08-07T18:26:15.177Z,48.08
2022-08-07T18:30:06.591Z,48.49
2022-08-07T18:32:24.515Z,49.07
2022-08-07T18:35:17.003Z,48.91
2022-08-07T18:38:58.641Z,49.18
2022-08-07T18:41:02.749Z,49.76
2022-08-07T18:44:08.348Z,49.76
2022-08-07T18:46:47.777Z,49.84
2022-08-07T18:50:19.275Z,50.22
2022-08-07T18:53:01.459Z,50.77
2022-08-07T18:56:03.046Z,50.83
2022-08-07T18:59:03.481Z,50.66
2022-08-07T19:02:20.025Z,51.01
2022-08-07T19:05:14.862Z,51.27
2022-08-07T19:08:06.610Z,51.49
2022-08-07T19:10:47.864Z,51.45
2022-08-07T19:13:21.524Z,51.65
2022-08-07T19:16:04.841Z,51.84
2022-08-07T19:19:13.105Z,52.23
2022-08-07T19:21:56.955Z,51.87
2022-08-07T19:24:54.025Z,51.85
2022-08-07T19:28:58.667Z,52.27
2022-08-07T19:30:57.504Z,52.53
2022-08-07T19:33:10.263Z,52.44
2022-08-07T19:35:40.842Z,52.63
2022-08-07T19:38:16.126Z,53.08
2022-08-07T19:40:49.356Z,53.50
2022-08-07T19:43:44.158Z,53.51
2022-08-07T19:46:10.481Z,53.06
2022-08-07T19:48:53.706Z,53.37
2022-08-07T19:51:24.171Z,53.52
2022-08-07T19:54:31.809Z,53.52
2022-08-07T19:58:00.890Z,53.51
2022-08-07T19:59:52.771Z,54.07
2022-08-07T20:02:30.670Z,53.72
2022-08-07T20:05:00.484Z,53.75
2022-08-07T20:07:45.984Z,53.90
2022-08-07T20:10:38.176Z,54.25
2022-08-07T20:13:45.195Z,54.49
2022-08-07T20:16:35.826Z,54.21
2022-08-07T20:19:05.850Z,54.55
2022-08-07T20:21:41.702Z,54.83
2022-08-07T20:24:35.089Z,54.56
2022-08-07T20:27:07.652Z,54.77
2022-08-07T20:29:56.885Z,55.03
2022-08-07T20:32:40.076Z,55.04
2022-08-07T20:35:26.557Z,54.94
2022-08-07T20:37:59.527Z,55.69
2022-08-07T20:40:33.149Z,55.94
2022-08-07T20:43:02.724Z,55.59
2022-08-07T20:46:26.123Z,55.76
2022-08-07T20:48:29.682Z,56.17
2022-08-07T20:51:01.744Z,56.36
2022-08-07T20:54:03.086Z,56.33
2022-08-07T20:56:29.449Z,56.62
2022-08-07T20:59:02.054Z,56.89
2022-08-07T21:01:45.455Z,57.21
2022-08-07T21:04:22.489Z,57.10
2022-08-07T21:06:56.822Z,57.16
2022-08-07T21:09:42.828Z,56.95
2022-08-07T21:12:26.039Z,57.47
2022-08-07T21:14:59.009Z,57.49
2022-08-07T21:18:02.345Z,57.30
2022-08-07T21:20:26.862Z,57.18
2022-08-07T21:23:08.666Z,57.68
2022-08-07T21:26:10.985Z,57.85
2022-08-07T21:28:56.054Z,57.70
2022-08-07T21:32:47.887Z,57.76
2022-08-07T21:34:59.765Z,57.49
2022-08-07T21:37:59.549Z,58.00
2022-08-07T21:40:27.020Z,57.77
2022-08-07T21:42:56.693Z,58.36
2022-08-07T21:46:11.353Z,58.46
2022-08-07T21:48:56.937Z,58.04
2022-08-07T21:51:27.460Z,58.37
2022-08-07T21:54:22.303Z,58.40
2022-08-07T21:57:06.871Z,58.55
2022-08-07T22:00:05.418Z,58.56
2022-08-07T22:02:53.826Z,58.67
2022-08-07T22:05:45.509Z,58.98
2022-08-07T22:08:13.129Z,58.59
2022-08-07T22:10:42.527Z,58.50
2022-08-07T22:13:13.709Z,59.01
2022-08-07T22:16:38.347Z,58.80
2022-08-07T22:19:02.991Z,59.06
2022-08-07T22:22:01.887Z,58.63
2022-08-07T22:24:33.367Z,58.93
2022-08-07T22:27:02.653Z,58.72
2022-08-07T22:29:48.312Z,58.78
2022-08-07T22:32:37.258Z,59.07
2022-08-07T22:35:11.220Z,59.32
2022-08-07T22:38:04.423Z,59.37
2022-08-07T22:40:52.164Z,58.84
2022-08-07T22:43:54.584Z,59.08
2022-08-07T22:47:04.231Z,59.38
2022-08-07T22:50:09.804Z,59.67
2022-08-07T22:53:01.873Z,59.44
2022-08-07T22:55:57.064Z,59.75
2022-08-07T22:58:28.161Z,59.32
2022-08-07T23:01:23.689Z,60.03
2022-08-07T23:04:28.946Z,59.59
2022-08-07T23:07:41.540Z,60.18
2022-08-07T23:10:41.892Z,59.99
2022-08-07T23:13:29.448Z,60.33
2022-08-07T23:16:44.699Z,60.47
2022-08-07T23:19:52.016Z,60.28
2022-08-07T23:22:49.873Z,59.98
2022-08-07T23:25:37.415Z,59.96
2022-08-07T23:28:35.680Z,60.07
2022-08-07T23:31:42.934Z,60.32
2022-08-07T23:34:37.858Z,61.06
2022-08-07T23:37:20.155Z,61.40
2022-08-07T23:40:07.963Z,61.35
2022-08-07T23:42:45.781Z,61.27
2022-08-07T23:46:02.657Z,62.06
2022-08-07T23:49:19.982Z,61.50
2022-08-07T23:52:58.509Z,61.91
2022-08-07T23:55:11.899Z,61.57
2022-08-07T23:58:18.690Z,61.82
